sensor_id;sensor_type;location;lat;lon;timestamp;P1;durP1;ratioP1;P2;durP2;ratioP2
71869;SDS011;59739;47.696;11.746;2022-07-24T00:02:17;9.15;;;8.07;;
71869;SDS011;59739;47.696;11.746;2022-07-24T00:04:43;9.38;;;8.48;;
71869;SDS011;59739;47.696;11.746;2022-07-24T00:07:09;9.40;;;8.18;;
71869;SDS011;59739;47.696;11.746;2022-07-24T00:09:35;8.80;;;7.70;;
71869;SDS011;59739;47.696;11.746;2022-07-24T00:12:01;9.60;;;8.60;;
71869;SDS011;59739;47.696;11.746;2022-07-24T00:14:28;12.00;;;8.25;;
71869;SDS011;59739;47.696;11.746;2022-07-24T00:16:54;10.27;;;8.45;;
71869;SDS011;59739;47.696;11.746;2022-07-24T00:19:20;9.55;;;8.45;;
71869;SDS011;59739;47.696;11.746;2022-07-24T00:21:46;8.38;;;7.57;;
71869;SDS011;59739;47.696;11.746;2022-07-24T00:24:12;9.27;;;8.35;;
71869;SDS011;59739;47.696;11.746;2022-07-24T00:26:38;9.05;;;8.15;;
71869;SDS011;59739;47.696;11.746;2022-07-24T00:29:04;9.75;;;8.77;;
71869;SDS011;59739;47.696;11.746;2022-07-24T00:31:30;11.27;;;8.90;;
71869;SDS011;59739;47.696;11.746;2022-07-24T00:33:56;9.18;;;8.27;;
71869;SDS011;59739;47.696;11.746;2022-07-24T00:36:22;10.18;;;8.98;;
71869;SDS011;59739;47.696;11.746;2022-07-24T00:38:48;10.20;;;8.38;;
71869;SDS011;59739;47.696;11.746;2022-07-24T00:41:14;9.00;;;8.10;;
71869;SDS011;59739;47.696;11.746;2022-07-24T00:43:59;8.77;;;7.88;;
71869;SDS011;59739;47.696;11.746;2022-07-24T00:46:29;8.73;;;7.93;;
71869;SDS011;59739;47.696;11.746;2022-07-24T00:48:55;10.15;;;8.57;;
71869;SDS011;59739;47.696;11.746;2022-07-24T00:51:21;9.40;;;8.18;;
71869;SDS011;59739;47.696;11.746;2022-07-24T00:53:48;8.45;;;7.43;;
71869;SDS011;59739;47.696;11.746;2022-07-24T00:56:14;9.57;;;7.75;;
71869;SDS011;59739;47.696;11.746;2022-07-24T00:58:40;9.95;;;8.10;;
71869;SDS011;59739;47.696;11.746;2022-07-24T01:01:06;9.38;;;8.38;;
71869;SDS011;59739;47.696;11.746;2022-07-24T01:03:32;9.18;;;8.25;;
71869;SDS011;59739;47.696;11.746;2022-07-24T01:05:58;9.20;;;8.23;;
71869;SDS011;59739;47.696;11.746;2022-07-24T01:08:24;10.60;;;8.60;;
71869;SDS011;59739;47.696;11.746;2022-07-24T01:10:51;9.93;;;8.85;;
71869;SDS011;59739;47.696;11.746;2022-07-24T01:13:17;9.10;;;8.07;;
71869;SDS011;59739;47.696;11.746;2022-07-24T01:15:45;9.85;;;8.63;;
71869;SDS011;59739;47.696;11.746;2022-07-24T01:18:12;9.65;;;8.35;;
71869;SDS011;59739;47.696;11.746;2022-07-24T01:20:38;9.93;;;8.35;;
71869;SDS011;59739;47.696;11.746;2022-07-24T01:23:04;10.00;;;8.48;;
71869;SDS011;59739;47.696;11.746;2022-07-24T01:25:31;9.60;;;8.70;;
71869;SDS011;59739;47.696;11.746;2022-07-24T01:27:57;10.43;;;8.60;;
71869;SDS011;59739;47.696;11.746;2022-07-24T01:30:23;8.90;;;8.00;;
71869;SDS011;59739;47.696;11.746;2022-07-24T01:32:49;10.13;;;8.70;;
71869;SDS011;59739;47.696;11.746;2022-07-24T01:35:15;9.63;;;8.63;;
71869;SDS011;59739;47.696;11.746;2022-07-24T01:37:41;10.35;;;8.48;;
71869;SDS011;59739;47.696;11.746;2022-07-24T01:40:07;11.35;;;8.80;;
71869;SDS011;59739;47.696;11.746;2022-07-24T01:42:34;10.10;;;8.75;;
71869;SDS011;59739;47.696;11.746;2022-07-24T01:45:00;11.93;;;9.40;;
71869;SDS011;59739;47.696;11.746;2022-07-24T01:47:26;10.38;;;9.00;;
71869;SDS011;59739;47.696;11.746;2022-07-24T01:49:52;11.30;;;8.55;;
71869;SDS011;59739;47.696;11.746;2022-07-24T01:52:18;9.57;;;8.50;;
71869;SDS011;59739;47.696;11.746;2022-07-24T01:54:44;10.48;;;9.02;;
71869;SDS011;59739;47.696;11.746;2022-07-24T01:57:10;9.60;;;8.70;;
71869;SDS011;59739;47.696;11.746;2022-07-24T01:59:36;9.35;;;8.40;;
71869;SDS011;59739;47.696;11.746;2022-07-24T02:02:02;10.18;;;8.77;;
71869;SDS011;59739;47.696;11.746;2022-07-24T02:04:28;9.55;;;8.65;;
71869;SDS011;59739;47.696;11.746;2022-07-24T02:06:54;10.50;;;8.85;;
71869;SDS011;59739;47.696;11.746;2022-07-24T02:09:19;9.32;;;8.40;;
71869;SDS011;59739;47.696;11.746;2022-07-24T02:11:45;10.80;;;9.07;;
71869;SDS011;59739;47.696;11.746;2022-07-24T02:14:11;9.48;;;8.57;;
71869;SDS011;59739;47.696;11.746;2022-07-24T02:16:37;9.35;;;8.38;;
71869;SDS011;59739;47.696;11.746;2022-07-24T02:19:03;10.85;;;8.88;;
71869;SDS011;59739;47.696;11.746;2022-07-24T02:21:29;9.68;;;8.68;;
71869;SDS011;59739;47.696;11.746;2022-07-24T02:23:55;9.52;;;8.63;;
71869;SDS011;59739;47.696;11.746;2022-07-24T02:26:22;9.30;;;8.40;;
71869;SDS011;59739;47.696;11.746;2022-07-24T02:28:48;9.95;;;8.95;;
71869;SDS011;59739;47.696;11.746;2022-07-24T02:31:13;11.70;;;9.38;;
71869;SDS011;59739;47.696;11.746;2022-07-24T02:33:39;10.85;;;9.75;;
71869;SDS011;59739;47.696;11.746;2022-07-24T02:36:05;9.48;;;8.50;;
71869;SDS011;59739;47.696;11.746;2022-07-24T02:38:32;9.75;;;8.75;;
71869;SDS011;59739;47.696;11.746;2022-07-24T02:40:58;10.25;;;9.25;;
71869;SDS011;59739;47.696;11.746;2022-07-24T02:43:24;10.35;;;9.35;;
71869;SDS011;59739;47.696;11.746;2022-07-24T02:45:50;12.00;;;9.13;;
71869;SDS011;59739;47.696;11.746;2022-07-24T02:48:16;11.50;;;8.80;;
71869;SDS011;59739;47.696;11.746;2022-07-24T02:50:42;10.48;;;8.90;;
71869;SDS011;59739;47.696;11.746;2022-07-24T02:53:08;9.70;;;8.35;;
71869;SDS011;59739;47.696;11.746;2022-07-24T02:55:34;10.25;;;8.93;;
71869;SDS011;59739;47.696;11.746;2022-07-24T02:58:00;9.80;;;8.80;;
71869;SDS011;59739;47.696;11.746;2022-07-24T03:00:26;10.75;;;8.82;;
71869;SDS011;59739;47.696;11.746;2022-07-24T03:02:52;10.27;;;9.27;;
71869;SDS011;59739;47.696;11.746;2022-07-24T03:05:18;9.63;;;8.63;;
71869;SDS011;59739;47.696;11.746;2022-07-24T03:07:44;12.30;;;8.82;;
71869;SDS011;59739;47.696;11.746;2022-07-24T03:10:12;10.25;;;8.82;;
71869;SDS011;59739;47.696;11.746;2022-07-24T03:12:39;10.23;;;9.13;;
71869;SDS011;59739;47.696;11.746;2022-07-24T03:15:06;11.80;;;9.45;;
71869;SDS011;59739;47.696;11.746;2022-07-24T03:17:33;9.93;;;8.93;;
71869;SDS011;59739;47.696;11.746;2022-07-24T03:19:59;9.98;;;8.93;;
71869;SDS011;59739;47.696;11.746;2022-07-24T03:22:26;10.90;;;9.05;;
71869;SDS011;59739;47.696;11.746;2022-07-24T03:24:52;10.30;;;9.13;;
71869;SDS011;59739;47.696;11.746;2022-07-24T03:27:18;10.00;;;8.70;;
71869;SDS011;59739;47.696;11.746;2022-07-24T03:29:45;10.98;;;9.82;;
71869;SDS011;59739;47.696;11.746;2022-07-24T03:32:10;11.95;;;9.30;;
71869;SDS011;59739;47.696;11.746;2022-07-24T03:34:36;11.73;;;9.35;;
71869;SDS011;59739;47.696;11.746;2022-07-24T03:37:02;10.35;;;9.05;;
71869;SDS011;59739;47.696;11.746;2022-07-24T03:39:28;9.35;;;8.45;;
71869;SDS011;59739;47.696;11.746;2022-07-24T03:41:54;9.52;;;8.52;;
71869;SDS011;59739;47.696;11.746;2022-07-24T03:44:20;10.02;;;9.02;;
71869;SDS011;59739;47.696;11.746;2022-07-24T03:46:46;11.07;;;9.52;;
71869;SDS011;59739;47.696;11.746;2022-07-24T03:49:12;12.38;;;9.77;;
71869;SDS011;59739;47.696;11.746;2022-07-24T03:51:38;9.88;;;8.75;;
71869;SDS011;59739;47.696;11.746;2022-07-24T03:54:04;11.18;;;8.93;;
71869;SDS011;59739;47.696;11.746;2022-07-24T03:56:30;10.20;;;9.15;;
71869;SDS011;59739;47.696;11.746;2022-07-24T03:58:56;12.45;;;8.95;;
71869;SDS011;59739;47.696;11.746;2022-07-24T04:01:22;9.95;;;8.93;;
71869;SDS011;59739;47.696;11.746;2022-07-24T04:03:48;10.10;;;9.00;;
71869;SDS011;59739;47.696;11.746;2022-07-24T04:06:14;10.55;;;9.48;;
71869;SDS011;59739;47.696;11.746;2022-07-24T04:08:40;9.98;;;8.98;;
71869;SDS011;59739;47.696;11.746;2022-07-24T04:11:06;10.93;;;9.05;;
71869;SDS011;59739;47.696;11.746;2022-07-24T04:13:33;9.75;;;8.68;;
71869;SDS011;59739;47.696;11.746;2022-07-24T04:15:59;10.77;;;9.43;;
71869;SDS011;59739;47.696;11.746;2022-07-24T04:18:25;9.63;;;8.63;;
71869;SDS011;59739;47.696;11.746;2022-07-24T04:20:51;12.57;;;10.10;;
71869;SDS011;59739;47.696;11.746;2022-07-24T04:23:17;11.25;;;9.50;;
71869;SDS011;59739;47.696;11.746;2022-07-24T04:25:44;11.13;;;8.90;;
71869;SDS011;59739;47.696;11.746;2022-07-24T04:28:10;12.10;;;9.50;;
71869;SDS011;59739;47.696;11.746;2022-07-24T04:30:36;11.48;;;9.82;;
71869;SDS011;59739;47.696;11.746;2022-07-24T04:33:02;9.77;;;8.80;;
71869;SDS011;59739;47.696;11.746;2022-07-24T04:35:28;10.10;;;9.10;;
71869;SDS011;59739;47.696;11.746;2022-07-24T04:37:54;9.98;;;8.98;;
71869;SDS011;59739;47.696;11.746;2022-07-24T04:40:20;9.63;;;8.63;;
71869;SDS011;59739;47.696;11.746;2022-07-24T04:42:46;10.00;;;8.38;;
71869;SDS011;59739;47.696;11.746;2022-07-24T04:45:12;10.45;;;9.25;;
71869;SDS011;59739;47.696;11.746;2022-07-24T04:47:38;10.35;;;9.18;;
71869;SDS011;59739;47.696;11.746;2022-07-24T04:50:05;10.27;;;9.27;;
71869;SDS011;59739;47.696;11.746;2022-07-24T04:52:32;10.85;;;8.38;;
71869;SDS011;59739;47.696;11.746;2022-07-24T04:54:58;11.00;;;9.30;;
71869;SDS011;59739;47.696;11.746;2022-07-24T04:57:24;10.88;;;9.32;;
71869;SDS011;59739;47.696;11.746;2022-07-24T04:59:50;10.52;;;9.35;;
71869;SDS011;59739;47.696;11.746;2022-07-24T05:02:16;10.55;;;9.13;;
71869;SDS011;59739;47.696;11.746;2022-07-24T05:04:42;9.63;;;8.63;;
71869;SDS011;59739;47.696;11.746;2022-07-24T05:07:08;11.10;;;9.30;;
71869;SDS011;59739;47.696;11.746;2022-07-24T05:09:34;9.57;;;8.68;;
71869;SDS011;59739;47.696;11.746;2022-07-24T05:12:00;10.35;;;9.30;;
71869;SDS011;59739;47.696;11.746;2022-07-24T05:14:26;10.85;;;9.00;;
71869;SDS011;59739;47.696;11.746;2022-07-24T05:16:52;10.15;;;8.63;;
71869;SDS011;59739;47.696;11.746;2022-07-24T05:19:18;10.35;;;9.00;;
71869;SDS011;59739;47.696;11.746;2022-07-24T05:21:44;10.27;;;9.00;;
71869;SDS011;59739;47.696;11.746;2022-07-24T05:24:10;11.95;;;9.18;;
71869;SDS011;59739;47.696;11.746;2022-07-24T05:26:36;10.27;;;8.80;;
71869;SDS011;59739;47.696;11.746;2022-07-24T05:29:02;10.48;;;9.10;;
71869;SDS011;59739;47.696;11.746;2022-07-24T05:31:31;9.88;;;8.88;;
71869;SDS011;59739;47.696;11.746;2022-07-24T05:33:58;10.23;;;9.23;;
71869;SDS011;59739;47.696;11.746;2022-07-24T05:36:27;10.48;;;9.38;;
71869;SDS011;59739;47.696;11.746;2022-07-24T05:38:54;9.95;;;9.00;;
71869;SDS011;59739;47.696;11.746;2022-07-24T05:41:20;9.32;;;8.43;;
71869;SDS011;59739;47.696;11.746;2022-07-24T05:43:46;9.60;;;8.57;;
71869;SDS011;59739;47.696;11.746;2022-07-24T05:46:12;10.15;;;8.88;;
71869;SDS011;59739;47.696;11.746;2022-07-24T05:48:38;9.88;;;8.38;;
71869;SDS011;59739;47.696;11.746;2022-07-24T05:51:04;10.32;;;8.93;;
71869;SDS011;59739;47.696;11.746;2022-07-24T05:53:30;10.48;;;9.48;;
71869;SDS011;59739;47.696;11.746;2022-07-24T05:55:56;9.68;;;8.68;;
71869;SDS011;59739;47.696;11.746;2022-07-24T05:58:22;10.55;;;9.55;;
71869;SDS011;59739;47.696;11.746;2022-07-24T06:00:48;10.57;;;9.48;;
71869;SDS011;59739;47.696;11.746;2022-07-24T06:03:14;9.90;;;8.95;;
71869;SDS011;59739;47.696;11.746;2022-07-24T06:05:40;9.13;;;8.27;;
71869;SDS011;59739;47.696;11.746;2022-07-24T06:08:06;9.85;;;8.85;;
71869;SDS011;59739;47.696;11.746;2022-07-24T06:10:34;9.45;;;8.48;;
71869;SDS011;59739;47.696;11.746;2022-07-24T06:13:00;9.63;;;8.73;;
71869;SDS011;59739;47.696;11.746;2022-07-24T06:15:26;10.05;;;9.05;;
71869;SDS011;59739;47.696;11.746;2022-07-24T06:17:52;9.05;;;8.23;;
71869;SDS011;59739;47.696;11.746;2022-07-24T06:20:18;10.40;;;9.02;;
71869;SDS011;59739;47.696;11.746;2022-07-24T06:22:44;10.18;;;8.98;;
71869;SDS011;59739;47.696;11.746;2022-07-24T06:25:10;9.70;;;8.70;;
71869;SDS011;59739;47.696;11.746;2022-07-24T06:27:40;9.00;;;7.35;;
71869;SDS011;59739;47.696;11.746;2022-07-24T06:30:17;9.82;;;8.77;;
71869;SDS011;59739;47.696;11.746;2022-07-24T06:32:49;8.93;;;8.13;;
71869;SDS011;59739;47.696;11.746;2022-07-24T06:35:18;9.18;;;8.38;;
71869;SDS011;59739;47.696;11.746;2022-07-24T06:37:44;9.65;;;8.65;;
71869;SDS011;59739;47.696;11.746;2022-07-24T06:40:11;9.18;;;8.30;;
71869;SDS011;59739;47.696;11.746;2022-07-24T06:42:37;9.45;;;8.52;;
71869;SDS011;59739;47.696;11.746;2022-07-24T06:45:04;9.52;;;8.20;;
71869;SDS011;59739;47.696;11.746;2022-07-24T06:47:31;10.15;;;8.80;;
71869;SDS011;59739;47.696;11.746;2022-07-24T06:49:56;9.55;;;8.35;;
71869;SDS011;59739;47.696;11.746;2022-07-24T06:52:26;10.45;;;8.98;;
71869;SDS011;59739;47.696;11.746;2022-07-24T06:54:52;9.73;;;8.82;;
71869;SDS011;59739;47.696;11.746;2022-07-24T06:57:18;8.90;;;8.05;;
71869;SDS011;59739;47.696;11.746;2022-07-24T06:59:44;9.30;;;8.40;;
71869;SDS011;59739;47.696;11.746;2022-07-24T07:02:10;9.25;;;8.35;;
71869;SDS011;59739;47.696;11.746;2022-07-24T07:04:36;10.38;;;8.75;;
71869;SDS011;59739;47.696;11.746;2022-07-24T07:07:02;9.98;;;9.05;;
71869;SDS011;59739;47.696;11.746;2022-07-24T07:09:29;9.50;;;8.60;;
71869;SDS011;59739;47.696;11.746;2022-07-24T07:11:55;9.77;;;8.73;;
71869;SDS011;59739;47.696;11.746;2022-07-24T07:14:21;9.13;;;8.25;;
71869;SDS011;59739;47.696;11.746;2022-07-24T07:16:47;9.50;;;8.50;;
71869;SDS011;59739;47.696;11.746;2022-07-24T07:19:14;9.32;;;8.35;;
71869;SDS011;59739;47.696;11.746;2022-07-24T07:21:44;9.57;;;8.48;;
71869;SDS011;59739;47.696;11.746;2022-07-24T07:24:10;9.45;;;8.55;;
71869;SDS011;59739;47.696;11.746;2022-07-24T07:26:36;9.63;;;8.70;;
71869;SDS011;59739;47.696;11.746;2022-07-24T07:29:02;10.30;;;9.27;;
71869;SDS011;59739;47.696;11.746;2022-07-24T07:31:28;11.65;;;8.43;;
71869;SDS011;59739;47.696;11.746;2022-07-24T07:33:54;10.00;;;9.00;;
71869;SDS011;59739;47.696;11.746;2022-07-24T07:36:23;10.20;;;9.20;;
71869;SDS011;59739;47.696;11.746;2022-07-24T07:38:49;10.50;;;9.60;;
71869;SDS011;59739;47.696;11.746;2022-07-24T07:41:15;10.23;;;8.88;;
71869;SDS011;59739;47.696;11.746;2022-07-24T07:43:44;10.63;;;9.52;;
71869;SDS011;59739;47.696;11.746;2022-07-24T07:46:14;9.75;;;8.85;;
71869;SDS011;59739;47.696;11.746;2022-07-24T07:48:41;10.07;;;8.48;;
71869;SDS011;59739;47.696;11.746;2022-07-24T07:51:07;9.50;;;8.60;;
71869;SDS011;59739;47.696;11.746;2022-07-24T07:53:33;9.35;;;8.45;;
71869;SDS011;59739;47.696;11.746;2022-07-24T07:55:59;9.82;;;8.82;;
71869;SDS011;59739;47.696;11.746;2022-07-24T07:58:26;10.23;;;9.10;;
71869;SDS011;59739;47.696;11.746;2022-07-24T08:00:53;9.93;;;8.98;;
71869;SDS011;59739;47.696;11.746;2022-07-24T08:03:19;11.02;;;9.68;;
71869;SDS011;59739;47.696;11.746;2022-07-24T08:05:46;10.63;;;9.55;;
71869;SDS011;59739;47.696;11.746;2022-07-24T08:08:12;10.00;;;8.68;;
71869;SDS011;59739;47.696;11.746;2022-07-24T08:10:47;10.30;;;9.32;;
71869;SDS011;59739;47.696;11.746;2022-07-24T08:13:13;9.85;;;8.95;;
71869;SDS011;59739;47.696;11.746;2022-07-24T08:15:40;10.18;;;9.27;;
71869;SDS011;59739;47.696;11.746;2022-07-24T08:18:06;10.95;;;9.90;;
71869;SDS011;59739;47.696;11.746;2022-07-24T08:20:33;10.55;;;9.60;;
71869;SDS011;59739;47.696;11.746;2022-07-24T08:22:59;11.43;;;10.23;;
71869;SDS011;59739;47.696;11.746;2022-07-24T08:25:25;12.00;;;10.85;;
71869;SDS011;59739;47.696;11.746;2022-07-24T08:27:52;11.20;;;9.80;;
71869;SDS011;59739;47.696;11.746;2022-07-24T08:30:18;11.18;;;10.07;;
71869;SDS011;59739;47.696;11.746;2022-07-24T08:32:45;10.93;;;9.88;;
71869;SDS011;59739;47.696;11.746;2022-07-24T08:35:11;10.95;;;9.85;;
71869;SDS011;59739;47.696;11.746;2022-07-24T08:37:40;10.55;;;9.55;;
71869;SDS011;59739;47.696;11.746;2022-07-24T08:40:07;11.05;;;10.05;;
71869;SDS011;59739;47.696;11.746;2022-07-24T08:43:04;10.98;;;9.88;;
71869;SDS011;59739;47.696;11.746;2022-07-24T08:45:42;11.65;;;10.45;;
71869;SDS011;59739;47.696;11.746;2022-07-24T08:48:11;10.57;;;9.55;;
71869;SDS011;59739;47.696;11.746;2022-07-24T08:50:39;10.27;;;9.10;;
71869;SDS011;59739;47.696;11.746;2022-07-24T08:53:07;11.05;;;9.95;;
71869;SDS011;59739;47.696;11.746;2022-07-24T08:55:34;9.85;;;8.93;;
71869;SDS011;59739;47.696;11.746;2022-07-24T08:58:04;10.13;;;9.23;;
71869;SDS011;59739;47.696;11.746;2022-07-24T09:00:31;10.60;;;9.50;;
71869;SDS011;59739;47.696;11.746;2022-07-24T09:02:58;10.50;;;9.50;;
71869;SDS011;59739;47.696;11.746;2022-07-24T09:05:24;10.00;;;9.13;;
71869;SDS011;59739;47.696;11.746;2022-07-24T09:07:50;10.50;;;9.60;;
71869;SDS011;59739;47.696;11.746;2022-07-24T09:10:40;9.57;;;8.77;;
71869;SDS011;59739;47.696;11.746;2022-07-24T09:13:17;10.05;;;9.25;;
71869;SDS011;59739;47.696;11.746;2022-07-24T09:15:47;9.77;;;8.88;;
71869;SDS011;59739;47.696;11.746;2022-07-24T09:20:53;9.65;;;8.45;;
71869;SDS011;59739;47.696;11.746;2022-07-24T09:23:20;11.40;;;10.30;;
71869;SDS011;59739;47.696;11.746;2022-07-24T09:25:53;10.15;;;9.25;;
71869;SDS011;59739;47.696;11.746;2022-07-24T09:28:20;10.02;;;9.10;;
71869;SDS011;59739;47.696;11.746;2022-07-24T09:30:47;10.27;;;9.35;;
71869;SDS011;59739;47.696;11.746;2022-07-24T09:33:14;9.52;;;8.32;;
71869;SDS011;59739;47.696;11.746;2022-07-24T09:35:52;11.15;;;10.10;;
71869;SDS011;59739;47.696;11.746;2022-07-24T09:38:22;11.07;;;9.68;;
71869;SDS011;59739;47.696;11.746;2022-07-24T09:43:25;9.48;;;8.48;;
71869;SDS011;59739;47.696;11.746;2022-07-24T09:46:01;9.95;;;9.02;;
71869;SDS011;59739;47.696;11.746;2022-07-24T09:48:36;8.95;;;8.15;;
71869;SDS011;59739;47.696;11.746;2022-07-24T09:51:15;9.65;;;8.70;;
71869;SDS011;59739;47.696;11.746;2022-07-24T09:53:43;10.77;;;9.73;;
71869;SDS011;59739;47.696;11.746;2022-07-24T09:56:14;10.82;;;9.73;;
71869;SDS011;59739;47.696;11.746;2022-07-24T10:01:11;9.98;;;8.98;;
71869;SDS011;59739;47.696;11.746;2022-07-24T10:03:42;9.05;;;8.15;;
71869;SDS011;59739;47.696;11.746;2022-07-24T10:06:14;9.52;;;8.55;;
71869;SDS011;59739;47.696;11.746;2022-07-24T10:08:43;10.00;;;9.10;;
71869;SDS011;59739;47.696;11.746;2022-07-24T10:11:12;9.48;;;8.63;;
71869;SDS011;59739;47.696;11.746;2022-07-24T10:13:40;8.82;;;7.90;;
71869;SDS011;59739;47.696;11.746;2022-07-24T10:27:34;9.73;;;8.82;;
71869;SDS011;59739;47.696;11.746;2022-07-24T10:30:08;9.52;;;8.73;;
71869;SDS011;59739;47.696;11.746;2022-07-24T10:32:36;9.60;;;8.70;;
71869;SDS011;59739;47.696;11.746;2022-07-24T10:40:44;9.00;;;8.27;;
71869;SDS011;59739;47.696;11.746;2022-07-24T10:43:16;9.20;;;8.27;;
71869;SDS011;59739;47.696;11.746;2022-07-24T10:53:28;10.65;;;9.70;;
71869;SDS011;59739;47.696;11.746;2022-07-24T10:59:12;9.18;;;8.38;;
71869;SDS011;59739;47.696;11.746;2022-07-24T11:06:48;9.48;;;8.57;;
71869;SDS011;59739;47.696;11.746;2022-07-24T11:09:53;9.00;;;8.20;;
71869;SDS011;59739;47.696;11.746;2022-07-24T11:12:28;9.10;;;8.30;;
71869;SDS011;59739;47.696;11.746;2022-07-24T11:15:00;9.82;;;8.82;;
71869;SDS011;59739;47.696;11.746;2022-07-24T11:17:46;9.20;;;8.30;;
71869;SDS011;59739;47.696;11.746;2022-07-24T11:20:22;9.07;;;8.27;;
71869;SDS011;59739;47.696;11.746;2022-07-24T11:25:20;8.77;;;7.93;;
71869;SDS011;59739;47.696;11.746;2022-07-24T11:27:49;9.25;;;8.35;;
71869;SDS011;59739;47.696;11.746;2022-07-24T11:30:25;8.65;;;7.85;;
71869;SDS011;59739;47.696;11.746;2022-07-24T11:32:56;8.70;;;7.90;;
71869;SDS011;59739;47.696;11.746;2022-07-24T11:35:30;9.63;;;8.48;;
71869;SDS011;59739;47.696;11.746;2022-07-24T11:38:02;9.63;;;7.45;;
71869;SDS011;59739;47.696;11.746;2022-07-24T11:40:30;8.27;;;7.55;;
71869;SDS011;59739;47.696;11.746;2022-07-24T11:42:58;8.98;;;7.97;;
71869;SDS011;59739;47.696;11.746;2022-07-24T11:45:26;8.00;;;7.30;;
71869;SDS011;59739;47.696;11.746;2022-07-24T11:47:52;8.75;;;8.02;;
71869;SDS011;59739;47.696;11.746;2022-07-24T11:50:21;8.98;;;8.18;;
71869;SDS011;59739;47.696;11.746;2022-07-24T11:52:49;9.05;;;8.25;;
71869;SDS011;59739;47.696;11.746;2022-07-24T11:55:17;8.65;;;7.95;;
71869;SDS011;59739;47.696;11.746;2022-07-24T11:57:50;8.15;;;7.32;;
71869;SDS011;59739;47.696;11.746;2022-07-24T12:00:28;9.02;;;8.23;;
71869;SDS011;59739;47.696;11.746;2022-07-24T12:02:55;8.15;;;7.43;;
71869;SDS011;59739;47.696;11.746;2022-07-24T12:07:53;8.13;;;7.35;;
71869;SDS011;59739;47.696;11.746;2022-07-24T12:10:24;8.07;;;7.38;;
71869;SDS011;59739;47.696;11.746;2022-07-24T12:12:51;8.30;;;7.60;;
71869;SDS011;59739;47.696;11.746;2022-07-24T12:15:20;9.65;;;7.25;;
71869;SDS011;59739;47.696;11.746;2022-07-24T12:20:21;7.90;;;7.20;;
71869;SDS011;59739;47.696;11.746;2022-07-24T12:22:55;8.13;;;7.43;;
71869;SDS011;59739;47.696;11.746;2022-07-24T12:25:25;8.02;;;7.32;;
71869;SDS011;59739;47.696;11.746;2022-07-24T12:30:36;8.90;;;8.10;;
71869;SDS011;59739;47.696;11.746;2022-07-24T12:33:26;7.93;;;7.22;;
71869;SDS011;59739;47.696;11.746;2022-07-24T12:35:58;8.23;;;7.53;;
71869;SDS011;59739;47.696;11.746;2022-07-24T12:41:15;7.80;;;7.00;;
71869;SDS011;59739;47.696;11.746;2022-07-24T12:46:36;7.55;;;6.57;;
71869;SDS011;59739;47.696;11.746;2022-07-24T12:56:57;8.98;;;8.10;;
71869;SDS011;59739;47.696;11.746;2022-07-24T12:59:41;8.00;;;7.40;;
71869;SDS011;59739;47.696;11.746;2022-07-24T13:02:10;9.98;;;7.35;;
71869;SDS011;59739;47.696;11.746;2022-07-24T13:04:49;9.00;;;8.10;;
71869;SDS011;59739;47.696;11.746;2022-07-24T13:07:20;7.85;;;7.07;;
71869;SDS011;59739;47.696;11.746;2022-07-24T13:09:48;8.05;;;6.93;;
71869;SDS011;59739;47.696;11.746;2022-07-24T13:12:15;8.98;;;8.15;;
71869;SDS011;59739;47.696;11.746;2022-07-24T13:14:42;8.02;;;7.22;;
71869;SDS011;59739;47.696;11.746;2022-07-24T13:17:09;7.97;;;7.25;;
71869;SDS011;59739;47.696;11.746;2022-07-24T13:19:42;8.63;;;7.78;;
71869;SDS011;59739;47.696;11.746;2022-07-24T13:22:13;8.63;;;7.82;;
71869;SDS011;59739;47.696;11.746;2022-07-24T13:24:40;8.07;;;6.88;;
71869;SDS011;59739;47.696;11.746;2022-07-24T13:27:07;9.23;;;7.03;;
71869;SDS011;59739;47.696;11.746;2022-07-24T13:29:35;7.10;;;6.50;;
71869;SDS011;59739;47.696;11.746;2022-07-24T13:32:02;8.10;;;7.30;;
71869;SDS011;59739;47.696;11.746;2022-07-24T13:34:29;7.68;;;6.97;;
71869;SDS011;59739;47.696;11.746;2022-07-24T13:36:55;7.60;;;6.90;;
71869;SDS011;59739;47.696;11.746;2022-07-24T13:39:22;8.38;;;7.28;;
71869;SDS011;59739;47.696;11.746;2022-07-24T13:41:48;7.38;;;6.78;;
71869;SDS011;59739;47.696;11.746;2022-07-24T13:44:14;7.70;;;7.05;;
71869;SDS011;59739;47.696;11.746;2022-07-24T13:46:41;10.35;;;7.07;;
71869;SDS011;59739;47.696;11.746;2022-07-24T13:49:08;8.48;;;7.38;;
71869;SDS011;59739;47.696;11.746;2022-07-24T13:51:37;8.05;;;7.25;;
71869;SDS011;59739;47.696;11.746;2022-07-24T13:54:03;8.07;;;6.93;;
71869;SDS011;59739;47.696;11.746;2022-07-24T13:56:30;7.43;;;6.65;;
71869;SDS011;59739;47.696;11.746;2022-07-24T13:58:56;8.57;;;7.68;;
71869;SDS011;59739;47.696;11.746;2022-07-24T14:01:24;8.10;;;7.28;;
71869;SDS011;59739;47.696;11.746;2022-07-24T14:03:50;8.05;;;7.13;;
71869;SDS011;59739;47.696;11.746;2022-07-24T14:06:16;8.10;;;7.50;;
71869;SDS011;59739;47.696;11.746;2022-07-24T14:08:42;9.27;;;7.68;;
71869;SDS011;59739;47.696;11.746;2022-07-24T14:11:08;8.35;;;7.35;;
71869;SDS011;59739;47.696;11.746;2022-07-24T14:13:35;8.23;;;7.53;;
71869;SDS011;59739;47.696;11.746;2022-07-24T14:16:02;8.68;;;7.78;;
71869;SDS011;59739;47.696;11.746;2022-07-24T14:18:28;7.88;;;7.20;;
71869;SDS011;59739;47.696;11.746;2022-07-24T14:20:54;8.43;;;7.63;;
71869;SDS011;59739;47.696;11.746;2022-07-24T14:23:20;7.70;;;6.95;;
71869;SDS011;59739;47.696;11.746;2022-07-24T14:25:47;8.70;;;7.82;;
71869;SDS011;59739;47.696;11.746;2022-07-24T14:28:13;8.85;;;8.05;;
71869;SDS011;59739;47.696;11.746;2022-07-24T14:30:40;7.47;;;6.78;;
71869;SDS011;59739;47.696;11.746;2022-07-24T14:33:06;7.82;;;7.22;;
71869;SDS011;59739;47.696;11.746;2022-07-24T14:35:33;8.27;;;7.47;;
71869;SDS011;59739;47.696;11.746;2022-07-24T14:38:00;10.93;;;7.50;;
71869;SDS011;59739;47.696;11.746;2022-07-24T14:40:26;8.45;;;7.75;;
71869;SDS011;59739;47.696;11.746;2022-07-24T14:42:52;8.48;;;7.57;;
71869;SDS011;59739;47.696;11.746;2022-07-24T14:45:20;8.35;;;7.53;;
71869;SDS011;59739;47.696;11.746;2022-07-24T14:47:47;7.50;;;6.80;;
71869;SDS011;59739;47.696;11.746;2022-07-24T14:50:13;8.23;;;7.53;;
71869;SDS011;59739;47.696;11.746;2022-07-24T14:52:39;7.63;;;6.93;;
71869;SDS011;59739;47.696;11.746;2022-07-24T14:55:06;7.90;;;7.28;;
71869;SDS011;59739;47.696;11.746;2022-07-24T14:57:33;7.75;;;7.05;;
71869;SDS011;59739;47.696;11.746;2022-07-24T14:59:59;8.30;;;7.60;;
71869;SDS011;59739;47.696;11.746;2022-07-24T15:02:25;8.00;;;7.30;;
71869;SDS011;59739;47.696;11.746;2022-07-24T15:04:51;8.13;;;7.28;;
71869;SDS011;59739;47.696;11.746;2022-07-24T15:07:17;7.88;;;7.20;;
71869;SDS011;59739;47.696;11.746;2022-07-24T15:09:44;8.23;;;7.43;;
71869;SDS011;59739;47.696;11.746;2022-07-24T15:12:09;8.00;;;7.32;;
71869;SDS011;59739;47.696;11.746;2022-07-24T15:14:35;8.52;;;7.72;;
71869;SDS011;59739;47.696;11.746;2022-07-24T15:17:02;8.93;;;7.97;;
71869;SDS011;59739;47.696;11.746;2022-07-24T15:19:28;8.23;;;7.43;;
71869;SDS011;59739;47.696;11.746;2022-07-24T15:21:54;8.60;;;7.32;;
71869;SDS011;59739;47.696;11.746;2022-07-24T15:24:20;7.72;;;7.05;;
71869;SDS011;59739;47.696;11.746;2022-07-24T15:26:49;9.25;;;8.00;;
71869;SDS011;59739;47.696;11.746;2022-07-24T15:29:15;8.10;;;7.25;;
71869;SDS011;59739;47.696;11.746;2022-07-24T15:31:42;8.65;;;7.80;;
71869;SDS011;59739;47.696;11.746;2022-07-24T15:34:10;9.48;;;7.75;;
71869;SDS011;59739;47.696;11.746;2022-07-24T15:36:37;8.05;;;7.40;;